Portada
METAR-TAF:

METAR-TAF

Aeropuertos :

Aeropuerto de Roma-Ciampino

Roma Ciampino, Italia

latitud: 41-47N, longitud: 012-35E, altitud: 129 m

Observación

El informe se hizo hace 25 minutos, a las 08:50 UTC
Viento 5 kt del norte-noreste
Temperatura 9°C
Humedad 87%
Presión 1024 hPa
Visibilidad 10 km o más
Cielo nuboso a una altura de 3000 ft

METAR: LIRA 070850Z 03005KT 9999 BKN030 09/07 Q1024

Hora: 10:15 (09:15 UTC)

Pronóstico

El informe se hizo hace 4 horas y 15 minutos, a las 05:00 UTC
Pronóstico válido del 07 a las 06 UTC al 08 a las 06 UTC
Viento 5 kt con dirección variable
Visibilidad 10 km o más
Nubes dispersas a una altura de 2500 ft
Temporalmente
del 07 a las 08 UTC al 07 a las 16 UTC
lluvia

TAF: LIRA 070500Z 0706/0806 VRB05KT 9999 SCT025 TEMPO 0708/0716 RA

Observaciones y pronósticos meteorológicos de más de 4000 aeropuertos (mensajes METAR y TAF).

Los puntos amarillos y rojos representan las estaciones disponibles.

Ponga el ratón en el punto deseado para ver el nombre de la estación.

Haga clic para ver las observaciones y los pronósticos meteorológicos.

Para cambiar el mapa : haga clic en los botones verdes con una cruz de color negro para hacer un zoom, en el botón verde con un guión para alejar o en las flechas verdes para mapas adyacentes.


METAR-TAF: